createdAt,value
2018-11-22T12:17:40.798Z,102537.46
2018-11-22T12:20:10.379Z,102534.91
2018-11-22T12:22:39.532Z,102534.52
2018-11-22T12:25:09.742Z,102537.17
2018-11-22T12:27:38.126Z,102533.87
2018-11-22T12:30:10.641Z,102526.20
2018-11-22T12:32:44.349Z,102529.64
2018-11-22T12:35:13.212Z,102530.78
2018-11-22T12:37:43.377Z,102525.66
2018-11-22T12:40:12.411Z,102529.64
2018-11-22T12:42:40.784Z,102527.58
2018-11-22T12:45:09.999Z,102521.19
2018-11-22T12:47:38.386Z,102518.63
2018-11-22T12:50:08.755Z,102523.48
2018-11-22T12:52:37.133Z,102518.91
2018-11-22T12:55:06.919Z,102513.89
2018-11-22T12:57:35.284Z,102513.63
2018-11-22T13:00:03.711Z,102517.99
2018-11-22T13:02:38.966Z,102521.83
2018-11-22T13:05:08.962Z,102514.66
2018-11-22T13:07:37.422Z,102511.60
2018-11-22T13:10:07.755Z,102512.35
2018-11-22T13:12:36.127Z,102513.50
2018-11-22T13:15:04.678Z,102505.72
2018-11-22T13:17:33.050Z,102511.87
2018-11-22T13:20:01.467Z,102507.13
2018-11-22T13:22:29.846Z,102501.27
2018-11-22T13:24:58.265Z,102504.09
2018-11-22T13:27:26.642Z,102503.45
2018-11-22T13:29:55.035Z,102500.12
2018-11-22T13:32:23.508Z,102504.87
2018-11-22T13:34:51.907Z,102499.76
2018-11-22T13:37:20.277Z,102501.53
2018-11-22T13:39:48.667Z,102497.70
2018-11-22T13:42:17.036Z,102498.97
2018-11-22T13:44:45.427Z,102498.48
2018-11-22T13:47:13.838Z,102495.53
2018-11-22T13:49:42.371Z,102493.86
2018-11-22T13:52:10.760Z,102488.12
2018-11-22T13:54:39.150Z,102485.70
2018-11-22T13:57:07.823Z,102490.81
2018-11-22T13:59:36.227Z,102490.28
2018-11-22T14:02:04.823Z,102491.81
2018-11-22T14:04:33.718Z,102489.02
2018-11-22T14:07:01.677Z,102491.19
2018-11-22T14:09:30.053Z,102493.25
2018-11-22T14:11:58.599Z,102499.50
2018-11-22T14:14:26.985Z,102497.34
2018-11-22T14:16:56.496Z,102497.23
2018-11-22T14:19:23.847Z,102497.74
2018-11-22T14:21:52.240Z,102506.69
2018-11-22T14:24:20.608Z,102504.39
2018-11-22T14:26:49.058Z,102506.06
2018-11-22T14:29:17.418Z,102504.78
2018-11-22T14:31:45.806Z,102504.00
2018-11-22T14:34:14.176Z,102503.25
2018-11-22T14:36:42.563Z,102505.02
2018-11-22T14:39:10.946Z,102499.12
2018-11-22T14:41:39.355Z,102504.63
2018-11-22T14:44:07.739Z,102502.21
2018-11-22T14:46:36.127Z,102497.48
2018-11-22T14:49:04.495Z,102494.94
2018-11-22T14:51:38.966Z,102496.57
2018-11-22T14:54:07.367Z,102495.94
2018-11-22T14:56:35.759Z,102500.06
2018-11-22T14:59:04.127Z,102498.64
2018-11-22T15:01:32.507Z,102492.52
2018-11-22T15:04:00.971Z,102494.31
2018-11-22T15:06:29.358Z,102491.13
2018-11-22T15:08:57.730Z,102488.44
2018-11-22T15:11:26.618Z,102490.59
2018-11-22T15:13:55.275Z,102493.05
2018-11-22T15:16:23.658Z,102490.59
2018-11-22T15:18:52.027Z,102490.11
2018-11-22T15:21:20.441Z,102492.66
2018-11-22T15:23:48.801Z,102487.94
2018-11-22T15:26:17.179Z,102489.71
2018-11-22T15:28:45.539Z,102488.69
2018-11-22T15:31:13.927Z,102492.78
2018-11-22T15:33:42.407Z,102489.23
2018-11-22T15:36:10.809Z,102490.87
2018-11-22T15:38:39.194Z,102495.72
2018-11-22T15:41:07.579Z,102495.33
2018-11-22T15:43:35.966Z,102493.41
2018-11-22T15:46:04.356Z,102495.61
2018-11-22T15:48:32.722Z,102494.33
2018-11-22T15:51:01.109Z,102497.77
2018-11-22T15:53:29.478Z,102497.63
2018-11-22T15:55:57.870Z,102495.86
2018-11-22T15:58:26.274Z,102497.53
2018-11-22T16:00:54.662Z,102498.28
2018-11-22T16:03:23.044Z,102494.70
2018-11-22T16:05:51.411Z,102500.84
2018-11-22T16:08:19.823Z,102501.48
2018-11-22T16:10:48.195Z,102500.99
2018-11-22T16:13:16.586Z,102497.02
2018-11-22T16:15:47.738Z,102496.00
2018-11-22T16:18:16.118Z,102496.25
2018-11-22T16:20:44.502Z,102493.20
2018-11-22T16:23:12.903Z,102498.80
2018-11-22T16:25:41.274Z,102502.64
2018-11-22T16:28:09.667Z,102507.39
2018-11-22T16:30:38.526Z,102498.06
2018-11-22T16:33:06.919Z,102501.11
2018-11-22T16:35:35.657Z,102502.00
2018-11-22T16:38:04.043Z,102493.69
2018-11-22T16:40:32.407Z,102500.45
2018-11-22T16:43:02.195Z,102501.88
2018-11-22T16:45:31.810Z,102503.39
2018-11-22T16:48:01.715Z,102496.75
2018-11-22T16:50:31.098Z,102506.72
2018-11-22T16:52:59.491Z,102500.33
2018-11-22T16:55:28.372Z,102498.91
2018-11-22T16:57:57.998Z,102503.53
2018-11-22T17:00:31.803Z,102505.30
2018-11-22T17:03:03.563Z,102502.75
2018-11-22T17:05:32.124Z,102500.97
2018-11-22T17:08:01.147Z,102505.69
2018-11-22T17:10:30.528Z,102500.09
2018-11-22T17:12:59.956Z,102498.67
2018-11-22T17:15:32.722Z,102499.81
2018-11-22T17:18:01.415Z,102500.09
2018-11-22T17:20:30.635Z,102502.09
2018-11-22T17:22:59.202Z,102494.52
2018-11-22T17:25:28.849Z,102496.57
2018-11-22T17:27:58.522Z,102499.09
2018-11-22T17:30:28.519Z,102497.00
2018-11-22T17:32:56.939Z,102499.56
2018-11-22T17:35:26.404Z,102494.30
2018-11-22T17:37:55.827Z,102498.56
2018-11-22T17:40:27.666Z,102497.70
2018-11-22T17:42:56.174Z,102494.64
2018-11-22T17:45:29.134Z,102506.80
2018-11-22T17:47:57.559Z,102499.12
2018-11-22T17:50:27.667Z,102503.23
2018-11-22T17:52:56.046Z,102506.79
2018-11-22T17:55:25.846Z,102510.79
2018-11-22T17:57:54.228Z,102512.13
2018-11-22T18:00:24.151Z,102516.20
2018-11-22T18:02:53.531Z,102520.79
2018-11-22T18:05:27.118Z,102516.91
2018-11-22T18:07:50.338Z,102516.95
2018-11-22T18:10:20.078Z,102527.27
2018-11-22T18:12:49.203Z,102526.19
2018-11-22T18:15:18.727Z,102521.69
2018-11-22T18:17:47.286Z,102524.92
2018-11-22T18:20:18.962Z,102523.86
2018-11-22T18:22:48.137Z,102514.72
2018-11-22T18:25:17.985Z,102519.23
2018-11-22T18:27:46.551Z,102516.95
2018-11-22T18:30:17.815Z,102525.14
2018-11-22T18:32:47.599Z,102519.78
2018-11-22T18:35:16.212Z,102517.11
2018-11-22T18:37:44.775Z,102518.41
2018-11-22T18:40:16.344Z,102523.28
2018-11-22T18:42:45.523Z,102520.88
2018-11-22T18:45:15.457Z,102515.73
2018-11-22T18:47:44.747Z,102519.86
2018-11-22T18:50:16.462Z,102516.03
2018-11-22T18:52:45.390Z,102511.17
2018-11-22T18:55:13.895Z,102511.03
2018-11-22T18:57:42.894Z,102515.91
2018-11-22T19:00:14.214Z,102511.19
2018-11-22T19:02:42.765Z,102512.22
2018-11-22T19:05:12.512Z,102515.13
2018-11-22T19:07:41.906Z,102518.47
2018-11-22T19:10:13.881Z,102521.91
2018-11-22T19:12:42.790Z,102522.80
2018-11-22T19:15:13.302Z,102505.95
2018-11-22T19:17:41.704Z,102518.47
2018-11-22T19:20:14.307Z,102515.13
2018-11-22T19:22:43.789Z,102522.44
2018-11-22T19:25:12.164Z,102519.36
2018-11-22T19:27:40.822Z,102529.97
2018-11-22T19:30:11.703Z,102519.59
2018-11-22T19:32:40.086Z,102518.32
2018-11-22T19:35:09.990Z,102517.05
2018-11-22T19:37:38.571Z,102519.24
2018-11-22T19:40:11.127Z,102519.59
2018-11-22T19:42:39.533Z,102518.71
2018-11-22T19:45:09.973Z,102514.78
2018-11-22T19:47:38.363Z,102510.94
2018-11-22T19:50:09.239Z,102506.97
2018-11-22T19:52:37.638Z,102518.33
2018-11-22T19:55:07.782Z,102511.05
2018-11-22T19:57:36.139Z,102510.17
2018-11-22T20:00:05.074Z,102517.19
2018-11-22T20:02:33.453Z,102515.42
2018-11-22T20:05:01.839Z,102511.45
2018-11-22T20:07:30.207Z,102515.14
2018-11-22T20:09:58.595Z,102514.16
2018-11-22T20:12:26.962Z,102508.52
2018-11-22T20:14:55.362Z,102509.40
2018-11-22T20:17:23.732Z,102517.59
2018-11-22T20:19:52.144Z,102509.30
2018-11-22T20:22:20.647Z,102513.23
2018-11-22T20:24:49.035Z,102508.52
2018-11-22T20:27:17.414Z,102513.77
2018-11-22T20:29:45.804Z,102515.43
2018-11-22T20:32:14.171Z,102519.27
2018-11-22T20:34:44.131Z,102521.43
2018-11-22T20:37:12.498Z,102517.59
2018-11-22T20:39:40.895Z,102516.70
2018-11-22T20:42:09.270Z,102507.23
2018-11-22T20:44:37.667Z,102512.88
2018-11-22T20:47:06.039Z,102513.23
2018-11-22T20:49:34.426Z,102513.77
2018-11-22T20:52:02.796Z,102510.03
2018-11-22T20:54:31.186Z,102510.03
2018-11-22T20:56:59.554Z,102506.20
2018-11-22T20:59:27.993Z,102507.87
2018-11-22T21:01:56.468Z,102504.92
2018-11-22T21:04:24.830Z,102513.61
2018-11-22T21:06:53.521Z,102502.11
2018-11-22T21:09:22.011Z,102502.64
2018-11-22T21:11:50.411Z,102497.24
2018-11-22T21:14:18.781Z,102496.23
2018-11-22T21:16:47.175Z,102495.32
2018-11-22T21:19:15.546Z,102499.69
2018-11-22T21:21:43.951Z,102501.35
2018-11-22T21:24:12.318Z,102498.27
2018-11-22T21:26:40.703Z,102498.52
2018-11-22T21:29:09.150Z,102495.97
2018-11-22T21:31:37.528Z,102501.86
2018-11-22T21:34:05.891Z,102497.89
2018-11-22T21:36:34.281Z,102502.89
2018-11-22T21:39:02.663Z,102513.51
2018-11-22T21:41:31.055Z,102516.42
2018-11-22T21:43:59.431Z,102512.09
2018-11-22T21:46:33.468Z,102514.89
2018-11-22T21:49:01.927Z,102514.00
2018-11-22T21:51:30.536Z,102516.95
2018-11-22T21:53:59.091Z,102510.81
2018-11-22T21:56:27.485Z,102511.59
2018-11-22T21:58:55.851Z,102507.13
2018-11-22T22:01:24.231Z,102502.38
2018-11-22T22:03:52.658Z,102504.05
2018-11-22T22:06:21.042Z,102504.05
2018-11-22T22:08:49.417Z,102502.77
2018-11-22T22:11:17.810Z,102504.93
2018-11-22T22:13:46.170Z,102505.33
2018-11-22T22:16:14.558Z,102503.16
2018-11-22T22:18:42.920Z,102503.16
2018-11-22T22:21:11.377Z,102495.36
2018-11-22T22:23:39.736Z,102502.52
2018-11-22T22:26:08.195Z,102503.02
2018-11-22T22:28:36.567Z,102498.30
2018-11-22T22:31:04.947Z,102498.80
2018-11-22T22:33:33.337Z,102493.83
2018-11-22T22:36:01.714Z,102496.52
2018-11-22T22:38:30.106Z,102490.23
2018-11-22T22:40:58.471Z,102492.92
2018-11-22T22:43:26.855Z,102494.70
2018-11-22T22:45:55.231Z,102494.20
2018-11-22T22:48:23.618Z,102497.65
2018-11-22T22:50:51.980Z,102491.65
2018-11-22T22:53:20.370Z,102496.90
2018-11-22T22:55:48.734Z,102496.90
2018-11-22T22:58:17.123Z,102492.78
2018-11-22T23:00:49.746Z,102494.19
2018-11-22T23:03:18.143Z,102493.80
2018-11-22T23:05:46.610Z,102487.80
2018-11-22T23:08:14.998Z,102483.97
2018-11-22T23:10:43.362Z,102479.64
2018-11-22T23:13:11.759Z,102486.03
2018-11-22T23:15:40.126Z,102488.59
2018-11-22T23:18:08.515Z,102485.50
2018-11-22T23:20:37.810Z,102491.00
2018-11-22T23:23:06.307Z,102489.34
2018-11-22T23:25:34.682Z,102491.89
2018-11-22T23:28:03.071Z,102495.86
2018-11-22T23:30:32.658Z,102495.86
2018-11-22T23:33:03.410Z,102492.78
2018-11-22T23:35:31.786Z,102495.09
2018-11-22T23:38:00.179Z,102502.52
2018-11-22T23:40:29.660Z,102497.41
2018-11-22T23:42:58.056Z,102506.75
2018-11-22T23:45:27.845Z,102509.95
2018-11-22T23:47:56.231Z,102501.75
2018-11-22T23:50:26.045Z,102495.75
2018-11-22T23:52:55.570Z,102498.31
2018-11-22T23:55:23.948Z,102502.53
2018-11-22T23:57:52.335Z,102503.91
